Domov               UVHVVR             MKGP            O straneh              
ZDRAVSTVENO VARSTVO RASTLIN
  MREŽA AGROMET. POSTAJ
 ► PROGNOSTIČNA OBVESTILA
AGROMETEOROLOŠKI PODATKI -
ARSO
OBVLADOVANJE TVEGANJ ZARADI
NEUGODNIH VREMENSKIH RAZMER
  ► NARAVNE NESREČE
  ► SUŠA/MOČA
  ► NAMAKANJE
  ► ŽLED (gozdarstvo)
KARTOGRAFSKI PRIKAZI
SPLETNE POVEZAVE
PROJEKTI IN PUBLIKACIJE

AGROMETEOROLOŠKA MREŽA: VREMENSKE POSTAJE IN FENOLOŠKA OPAZOVANJA

Pregled podatkov za lokacijo Slap, meteorološka postaja 49193

Pregled senzorjev na lokaciji

ID Ime Zadnja
vrednost
Datum
zadnje
spremembe
Tip
senzorja
3687 Temperatura 2 m (°C) 8,18 °C 15.12.2017 20:00 50YA
3688 Relativna vlaga 2 m (% RH) 100 % RH 15.12.2017 20:00 50YA
3689 Omočenost lista (U) 0 U 16.11.2017 05:00 A730WET
3690 Sončno sevanje (W/m2) 23,59 W/m2 15.12.2017 20:00 Pyranometer SP-Lite
3691 Temperatura tal 5 cm (°C) 6,99 °C 15.12.2017 20:00 99TG411E
3692 Hitrost vetra (km/h) 4,1 km/h 15.12.2017 20:00 566.2S-176 (200km/h)
3693 Smer vetra (°) 221,2 ° 15.12.2017 20:00 566.2S-130
3694 Padavine (mm) 0,6 mm 15.12.2017 20:00 Rain-O-Matic

Pregled podatkov zadnjih 24 ur

Zap.
št.
Datum in čas Slap
Hitrost
vetra
Omočenost
lista
Padavine Relativna
vlaga
2
m
Smer
vetra
Sončno
sevanje
Temperatura
2
m
Temperatura
tal
5
cm
0 15.12.2017 20:00 4,1 0,6 100 221,2 23,59 8,18 6,99
1 15.12.2017 19:30 1,94 0 100 168,74 21,91 8,12 6,96
2 15.12.2017 19:00 0,16 0,2 100 17,46 32,38 8,4 6,96
3 15.12.2017 18:30 0,99 0 100 228,63 21,45 8,6 6,94
4 15.12.2017 18:00 2,53 0 100 227,96 25,67 9,04 6,93
5 15.12.2017 17:30 3,69 0 100 189,29 27,53 9,18 6,91
6 15.12.2017 17:00 3,82 0,6 100 187,24 352,27 9,42 6,91
7 15.12.2017 16:30 2 0,4 100 24,41 819,2 9,48 6,89
8 15.12.2017 16:00 1,65 0 100 31,65 1809,87 9,64 6,86
9 15.12.2017 15:30 2,56 0 99,51 195,27 1980,8 9,88 6,87
10 15.12.2017 15:00 0,16 0 97,19 342,39 1992,89 10,3 6,84
11 15.12.2017 14:30 2,05 0,2 95,87 72,91 2000 10,56 6,83
12 15.12.2017 14:00 1,27 0,2 94,51 75,53 2000 11,37 6,93
13 15.12.2017 13:30 2,76 0 88,01 256,67 2000 12,84 7,14
14 15.12.2017 13:00 5,42 0,4 86,14 187,02 2000 12,4 6,98
15 15.12.2017 12:30 6,01 0,4 85,08 234,62 2000 12,92 7,06
16 15.12.2017 12:00 9,67 0,4 76,9 190,9 2000 13,54 7,02
17 15.12.2017 11:30 10,04 0,2 73,14 179,5 2000 13,31 6,88
18 15.12.2017 11:00 6,63 0,4 74,5 195,99 2000 13,06 6,89
19 15.12.2017 10:30 11,26 0 70,7 241,49 2000 13,24 6,83
20 15.12.2017 10:00 12,87 0 72,03 167,99 2000 14,02 7,05
21 15.12.2017 09:30 10,44 0 71,91 173,2 2000 12,94 6,75
22 15.12.2017 09:00 11,64 0 72,37 186,33 2000 13,18 6,8
23 15.12.2017 08:30 9,25 0 74,02 194,07 1683,8 12,4 6,66
24 15.12.2017 08:00 8,16 0 77,46 191,03 888,81 11,8 6,66
25 15.12.2017 07:30 5,97 0 80,15 212,8 231,17 11,55 6,64
26 15.12.2017 07:00 3,55 0 97,54 226,95 22,8 9,3 6,59
27 15.12.2017 06:30 1,87 0 100 75,59 26,46 7,68 6,57
28 15.12.2017 06:00 1,19 0 100 53,29 23,04 7,56 6,57
29 15.12.2017 05:30 2,19 0 100 64,25 24,51 7,03 6,55
30 15.12.2017 05:00 3,24 0 100 352,29 28,38 6,72 6,55
31 15.12.2017 04:30 1,4 0 100 335,96 20,81 6,48 6,53
32 15.12.2017 04:00 1,01 0 100 222,44 30,82 6,47 6,53
33 15.12.2017 03:30 1,95 0 100 306,82 29,76 6,51 6,53
34 15.12.2017 03:00 1,37 0 100 239,87 27,8 6,46 6,53
35 15.12.2017 02:30 2,01 0 100 19,78 26,58 6,48 6,51
36 15.12.2017 02:00 1,02 0 100 65,73 33,78 6,47 6,51
37 15.12.2017 01:30 1,11 0 100 67,73 31,07 6,47 6,5
38 15.12.2017 01:00 0,98 0 100 5,43 6,49 6,51
39 15.12.2017 00:30 1,42 0 100 221,52 6,55 6,49
40 15.12.2017 00:00 1,47 0 100 134,62 6,52 6,49
41 14.12.2017 23:30 1,4 0 100 282,71 6,6 6,5
42 14.12.2017 23:00 1,25 0 100 93,8 6,66 6,49
43 14.12.2017 22:30 4,43 0 100 48,82 6,78 6,48
44 14.12.2017 22:00 3,41 0 100 75,32 6,87 6,48
45 14.12.2017 21:30 5,04 0 100 5,43 6,76 6,48
46 14.12.2017 21:00 3,25 0 100 285,36 6,68 6,46
© 2011 Ministrstvo za kmetijstvo, gozdarstvo in prehrano. Vse pravice pridržane.